This is the latest recevied weather packets stored in our database for station/object G7GQA-4. If no packets are shown the sender has not sent any weather packets the latest 10 day(s).
| Time | Temp. | Humidity | Pressure | Rain* | Wind** | Luminosity | Snow |
|---|---|---|---|---|---|---|---|
| 1778092527 | 11.67° C | 57% | - | 0 mm | - | 47 W/m² | - |
| 1778091932 | 12.22° C | 52% | - | 0 mm | - | 57 W/m² | - |
| 1778091340 | 12.22° C | 50% | - | 0 mm | - | 70 W/m² | - |
| 1778090727 | 12.78° C | 50% | - | 0 mm | - | 77 W/m² | - |
| 1778090127 | 12.78° C | 48% | - | 0 mm | - | 94 W/m² | - |
| 1778089527 | 12.78° C | 49% | - | 0 mm | - | 121 W/m² | - |
| 1778088927 | 12.78° C | 49% | - | 0 mm | - | 111 W/m² | - |
| 1778088327 | 13.33° C | 48% | - | 0 mm | - | 138 W/m² | - |
| 1778087727 | 13.33° C | 47% | - | 0 mm | - | 131 W/m² | - |
| 1778087127 | 13.33° C | 47% | - | 0 mm | - | 155 W/m² | - |
| 1778086527 | 12.78° C | 47% | - | 0 mm | - | 201 W/m² | - |
| 1778085927 | 13.33° C | 45% | - | 0 mm | - | 162 W/m² | - |
| 1778085327 | 13.33° C | 44% | - | 0 mm | - | 382 W/m² | - |
| 1778084727 | 12.78° C | 48% | - | 0 mm | - | 182 W/m² | - |
| 1778084127 | 12.78° C | 48% | - | 0 mm | - | 163 W/m² | - |
| 1778083527 | 12.78° C | 48% | - | 0 mm | - | 146 W/m² | - |
| 1778082927 | 13.33° C | 47% | - | 0 mm | - | 134 W/m² | - |
| 1778082327 | 13.89° C | 45% | - | 0 mm | - | 248 W/m² | - |
| 1778081727 | 13.89° C | 44% | - | 0 mm | - | 534 W/m² | - |
| 1778081127 | 13.89° C | 44% | - | 0 mm | - | 209 W/m² | - |
| 1778080527 | 13.89° C | 44% | - | 0 mm | - | 638 W/m² | - |
| 1778079927 | 13.33° C | 48% | - | 0 mm | - | 349 W/m² | - |
| 1778079327 | 13.89° C | 47% | - | 0 mm | - | 260 W/m² | - |
| 1778078727 | 13.33° C | 48% | - | 0 mm | - | 474 W/m² | - |
| 1778078127 | 13.89° C | 48% | - | 0 mm | - | 338 W/m² | - |
* Rain latest hour (hover to see other rain measurements)
** Current wind speed in m/s (hover to see current wind gust speed)